Latest Coastal Weather Observations for Bairnsdale

IDV60701

Issued at 3:21 pm EST Sunday 31 July 2016 (issued every 10 minutes, with the page automatically refreshed every 10 minutes)

About coastal observations | Map of coastal stations | Coastal observations for VIC | Marine services | Other Formats
Station Details ID: 085279 Name: BAIRNSDALE AIRPORT Lat: -37.88 Lon: 147.57 Height: 49.4 m
Data from the previous 72 hours. | See also: Recent months at Bairnsdale
Date/Time
EST
Temp
°C
Wind Pressure Rain since
9am
mm
Weather Cloud Vis
km
Sea
Height
m
Swell
Dir  Spd
kts
Gust
kts
hPa Trend Height
m
Period
s
Dir
31/03:00pm 16.1 SSW 10 13 1014.3 - 0.0 - - 10 - - - -
31/02:30pm 16.6 SW 12 16 1013.9 - 0.0 - - 10 - - - -
31/02:00pm 17.1 WSW 11 14 1014.0 - 0.0 - - 10 - - - -
31/01:30pm 17.1 WSW 12 18 1014.0 - 0.0 - - 10 - - - -
31/01:00pm 17.2 WSW 13 17 1014.3 - 0.0 - - 10 - - - -
31/12:30pm 16.7 WSW 11 17 1014.6 - 0.0 - - 10 - - - -
31/12:00pm 16.6 SW 12 18 1015.0 - 0.0 - - 10 - - - -
31/11:30am 15.6 SW 13 18 1015.3 - 0.0 - - 10 - - - -
31/11:00am 15.2 SW 13 17 1015.6 - 0.0 - Partly cloudy 10 - - - -
31/10:30am 14.8 SW 7 10 1015.7 - 0.0 - Partly cloudy 10 - - - -
31/10:00am 14.1 SW 8 10 1015.7 - 0.0 - Partly cloudy 10 - - - -
31/09:30am 13.1 SSW 5 6 1015.6 - 0.0 - Cloudy 10 - - - -
31/09:00am 12.2 SW 5 7 1015.5 - 0.0 - Cloudy 10 - - - -
31/08:30am 12.4 WSW 4 5 1015.0 - 0.0 - Cloudy 10 - - - -
31/08:00am 11.7 WSW 5 8 1014.7 - 0.0 - Partly cloudy 10 - - - -
31/07:30am 11.8 WSW 7 9 1014.3 - 0.0 - Cloudy 10 - - - -
31/07:00am 12.5 WNW 8 11 1013.7 - 0.0 - Cloudy 10 - - - -
31/06:30am 12.9 NW 10 15 1013.1 - 0.0 - Cloudy 10 - - - -
31/06:00am 13.0 NW 11 17 1012.8 - 0.0 - Cloudy 10 - - - -
31/05:30am 13.3 NW 13 19 1012.5 - 0.0 - Partly cloudy 10 - - - -
31/05:00am 13.0 NW 13 17 1012.3 - 0.0 - Partly cloudy 10 - - - -
31/04:30am 13.1 NW 14 18 1012.0 - 0.0 - Partly cloudy 10 - - - -
31/04:11am 13.5 NW 15 26 1012.1 - 0.0 - Partly cloudy 10 - - - -
31/04:00am 13.5 NW 13 19 1012.1 - 0.0 - Cloudy 10 - - - -
31/03:30am 13.5 NW 12 18 1012.2 - 0.0 - Partly cloudy 10 - - - -
31/03:00am 13.4 NW 10 15 1012.3 - 0.0 - Cloudy 10 - - - -
31/02:30am 13.3 NNW 10 13 1012.6 - 0.0 - Partly cloudy 10 - - - -
31/02:00am 13.6 NNW 13 20 1012.4 - 0.0 - Partly cloudy 10 - - - -
31/01:30am 13.5 NNW 13 20 1012.5 - 0.0 - Partly cloudy 10 - - - -
31/01:00am 12.8 NNW 10 13 1012.8 - 0.0 - Partly cloudy 10 - - - -
31/12:30am 12.7 NNW 9 12 1013.7 - 0.0 - Cloudy 10 - - - -
31/12:00am 11.9 NW 5 8 1014.0 - 0.0 - Mostly cloudy 10 - - - -
 
Date/Time
EST
Temp
°C
Wind Pressure Rain since
9am
mm
Weather Cloud Vis
km
Sea
Height
m
Swell
Dir  Spd
kts
Gust
kts
hPa Trend Height
m
Period
s
Dir
30/11:30pm 12.7 NNW 9 13 1014.1 - 0.0 - Partly cloudy 10 - - - -
30/11:00pm 11.9 NW 7 9 1014.4 - 0.0 - Partly cloudy 10 - - - -
30/10:30pm 12.4 NW 8 10 1014.4 - 0.0 - Partly cloudy 10 - - - -
30/10:00pm 12.8 NNW 10 15 1014.0 - 0.0 - - 10 - - - -
30/09:30pm 11.0 NNW 6 9 1014.1 - 0.0 - - 10 - - - -
30/09:00pm 9.2 N 3 5 1014.3 - 0.0 - Cloudy 10 - - - -
30/08:30pm 10.2 NNE 5 6 1014.3 - 0.0 - - 10 - - - -
30/08:00pm 9.3 NE 4 5 1014.7 - 0.0 - - 10 - - - -
30/07:30pm 10.0 NE 5 7 1014.6 - 0.0 - - 10 - - - -
30/07:00pm 9.8 NE 6 7 1015.0 - 0.0 - - 10 - - - -
30/06:30pm 10.1 NE 4 5 1015.4 - 0.0 - - 10 - - - -
30/06:00pm 10.2 N 3 4 1015.4 - 0.0 - - 10 - - - -
30/05:30pm 11.2 ENE 4 5 1015.3 - 0.0 - - 10 - - - -
30/05:00pm 12.9 NE 6 8 1015.3 - 0.0 - - 10 - - - -
30/04:30pm 14.8 NNE 4 5 1015.6 - 0.0 - - 10 - - - -
30/04:00pm 15.8 NE 5 7 1015.8 - 0.0 - - 10 - - - -
30/03:30pm 17.1 NNW 9 13 1016.1 - 0.0 - - 10 - - - -
30/03:00pm 17.6 N 8 11 1016.7 - 0.0 - - 10 - - - -
30/02:30pm 17.0 N 7 10 1016.8 - 0.0 - - 10 - - - -
30/02:00pm 17.1 NNW 8 10 1017.1 - 0.0 - - 10 - - - -
30/01:30pm 17.5 NW 6 9 1017.9 - 0.0 - - 10 - - - -
30/01:00pm 16.6 NNW 5 9 1018.2 - 0.0 - - 10 - - - -
30/12:30pm 16.0 NNE 6 9 1018.9 - 0.0 - - 10 - - - -
30/12:00pm 15.7 NNE 4 6 1019.5 - 0.0 - - 10 - - - -
30/11:30am 14.7 NNE 5 7 1020.3 - 0.0 - - 10 - - - -
30/11:00am 14.3 NNW 5 7 1020.9 - 0.0 - - 10 - - - -
30/10:30am 13.3 NW 5 7 1021.1 - 0.0 - - 10 - - - -
30/10:00am 12.6 NNW 5 7 1021.3 - 0.0 - - 10 - - - -
30/09:30am 11.6 NNW 5 6 1021.7 - 0.0 - - 10 - - - -
30/09:00am 10.1 NNW 5 6 1021.9 - 0.0 - Mostly clear 10 - - - -
30/08:30am 9.4 N 5 6 1022.1 - 0.0 - Partly cloudy 10 - - - -
30/08:00am 7.5 NNW 5 7 1022.4 - 0.0 - Cloudy 10 - - - -
30/07:30am 7.4 N 4 4 1022.4 - 0.0 - Cloudy 10 - - - -
30/07:00am 7.0 WSW 4 5 1022.2 - 0.0 - Cloudy 10 - - - -
30/06:30am 6.7 SSW 1 4 1021.9 - 0.0 - Cloudy 10 - - - -
30/06:00am 6.8 NNE 2 4 1021.5 - 0.0 - Cloudy 10 - - - -
30/05:30am 6.3 W 1 4 1021.1 - 0.0 - Cloudy 10 - - - -
30/05:00am 6.2 WNW 6 7 1021.1 - 0.0 - Partly cloudy 10 - - - -
30/04:30am 6.2 NW 6 8 1020.8 - 0.0 - Partly cloudy 10 - - - -
30/04:00am 6.8 WNW 6 8 1020.9 - 0.0 - Partly cloudy 10 - - - -
30/03:30am 6.5 WNW 7 8 1020.8 - 0.0 - - 10 - - - -
30/03:00am 6.0 NW 7 8 1020.7 - 0.0 - Mostly clear 10 - - - -
30/02:30am 5.9 NW 6 8 1021.0 - 0.0 - - 10 - - - -
30/02:00am 7.1 NW 6 9 1021.0 - 0.0 - Partly cloudy 10 - - - -
30/01:30am 8.9 WNW 7 9 1021.0 - 0.0 - Partly cloudy 10 - - - -
30/01:00am 8.8 WNW 7 9 1021.1 - 0.0 - Cloudy 10 - - - -
30/12:30am 8.5 WNW 6 7 1020.9 - 0.0 - Partly cloudy 10 - - - -
30/12:00am 8.3 WNW 6 7 1020.9 - 0.0 - - 10 - - - -
 
Date/Time
EST
Temp
°C
Wind Pressure Rain since
9am
mm
Weather Cloud Vis
km
Sea
Height
m
Swell
Dir  Spd
kts
Gust
kts
hPa Trend Height
m
Period
s
Dir
29/11:30pm 8.5 WNW 5 7 1021.2 - 0.0 - Partly cloudy 10 - - - -
29/11:00pm 7.8 NW 5 7 1021.0 - 0.0 - - 10 - - - -
29/10:30pm 10.4 W 9 11 1020.8 - 0.0 - Partly cloudy 10 - - - -
29/10:00pm 11.7 WSW 11 14 1020.7 - 0.0 - Partly cloudy 10 - - - -
29/09:30pm 11.8 W 13 19 1020.4 - 0.0 - Partly cloudy 10 - - - -
29/09:00pm 11.4 WNW 10 19 1020.4 - 0.0 - Cloudy 10 - - - -
29/08:30pm 10.8 WSW 4 5 1020.3 - 0.0 - Partly cloudy 10 - - - -
29/08:00pm 11.4 W 8 13 1019.9 - 0.0 - Partly cloudy 10 - - - -
29/07:30pm 10.8 WSW 7 9 1019.7 - 0.0 - Partly cloudy 10 - - - -
29/07:00pm 10.8 SW 14 19 1019.5 - 0.0 - Cloudy 10 - - - -
29/06:30pm 13.5 W 9 15 1018.6 - 0.0 - Partly cloudy 10 - - - -
29/06:00pm 14.0 W 8 11 1018.2 - 0.0 - Mostly cloudy 10 - - - -
29/05:30pm 14.4 W 10 13 1017.8 - 0.0 - Cloudy 10 - - - -
29/05:00pm 14.7 W 12 15 1017.2 - 0.0 - Partly cloudy 10 - - - -
29/04:30pm 15.7 W 13 18 1017.1 - 0.0 - Cloudy 10 - - - -
29/04:00pm 15.4 W 13 20 1017.1 - 0.0 - Partly cloudy 10 - - - -
29/03:30pm 15.6 W 17 23 1016.9 - 0.0 - Partly cloudy 10 - - - -
29/03:00pm 16.4 W 15 21 1016.7 - 0.0 - Partly cloudy 10 - - - -
29/02:43pm 16.7 W 17 27 1016.6 - 0.0 - Partly cloudy 10 - - - -
29/02:30pm 16.8 W 20 28 1016.5 - 0.0 - Partly cloudy 10 - - - -
29/02:00pm 16.8 W 18 28 1016.5 - 0.0 - Partly cloudy 10 - - - -
29/01:30pm 17.1 W 19 30 1016.8 - 0.0 - - 10 - - - -
29/01:00pm 17.8 W 16 26 1016.7 - 0.0 - Partly cloudy 10 - - - -
29/12:58pm 17.6 W 16 26 1016.7 - 0.0 - - 10 - - - -
29/12:49pm 17.2 WNW 12 22 1016.8 - 0.0 - Partly cloudy 10 - - - -
29/12:30pm 15.6 NNW 8 12 1017.0 - 0.0 - Partly cloudy 10 - - - -
29/12:00pm 14.2 NW 11 16 1017.4 - 0.0 - Partly cloudy 10 - - - -
29/11:30am 14.0 NW 11 14 1017.9 - 0.0 - Partly cloudy 10 - - - -
29/11:00am 13.6 NW 9 12 1018.5 - 0.0 - Cloudy 10 - - - -
29/10:30am 12.9 NW 10 15 1018.8 - 0.0 - Cloudy 10 - - - -
29/10:00am 12.5 NW 9 15 1019.0 - 0.0 - Partly cloudy 10 - - - -
29/09:30am 12.7 NW 9 13 1019.0 - 0.0 - Cloudy 10 - - - -
29/09:00am 11.5 NNW 8 12 1019.1 - 0.0 - Partly cloudy 10 - - - -
29/08:30am 9.5 NNW 6 8 1019.3 - 0.0 - Partly cloudy 10 - - - -
29/08:00am 7.9 NW 6 8 1019.6 - 0.0 - Partly cloudy 10 - - - -
29/07:30am 7.4 NW 7 9 1019.3 - 0.0 - Partly cloudy 10 - - - -
29/07:00am 7.3 NW 6 8 1019.1 - 0.0 - Cloudy 10 - - - -
29/06:30am 8.2 NW 6 8 1019.3 - 0.0 - Cloudy 10 - - - -
29/06:00am 8.5 NW 7 9 1019.0 - 0.0 - Cloudy 10 - - - -
29/05:30am 8.5 NW 6 9 1019.0 - 0.0 - Partly cloudy 10 - - - -
29/05:00am 8.6 NW 7 9 1018.9 - 0.0 - Cloudy 10 - - - -
29/04:30am 7.8 NW 7 9 1018.9 - 0.0 - Partly cloudy 10 - - - -
29/04:00am 7.2 NNW 6 8 1018.9 - 0.0 - Partly cloudy 10 - - - -
29/03:30am 7.4 NNW 5 6 1019.2 - 0.0 - Partly cloudy 10 - - - -
29/03:00am 8.2 NW 4 6 1019.4 - 0.0 - Mostly clear 10 - - - -
29/02:30am 7.5 W 5 7 1019.8 - 0.0 - - 10 - - - -
29/02:00am 7.6 WNW 4 5 1019.6 - 0.0 - - 10 - - - -
29/01:30am 7.0 WNW 5 6 1019.8 - 0.0 - - 10 - - - -
29/01:00am 7.7 NNW 7 8 1019.9 - 0.0 - - 10 - - - -
29/12:30am 8.4 NNW 8 11 1020.2 - 0.0 - - 10 - - - -
29/12:00am 8.2 NW 7 10 1020.5 - 0.0 - Mostly clear 10 - - - -
 
Date/Time
EST
Temp
°C
Wind Pressure Rain since
9am
mm
Weather Cloud Vis
km
Sea
Height
m
Swell
Dir  Spd
kts
Gust
kts
hPa Trend Height
m
Period
s
Dir
28/11:30pm 8.1 NW 7 8 1020.5 - 0.0 - Cloudy 10 - - - -
28/11:00pm 8.7 NNW 9 14 1020.8 - 0.0 - Cloudy 10 - - - -
28/10:30pm 7.1 NW 8 11 1021.4 - 0.0 - - 10 - - - -
28/10:00pm 8.4 NW 7 11 1021.1 - 0.0 - - 10 - - - -
28/09:30pm 8.6 NW 9 14 1021.5 - 0.0 - - 10 - - - -
28/09:00pm 7.1 NNW 8 11 1021.5 - 0.0 - - 10 - - - -
28/08:30pm 7.0 NNW 6 9 1021.6 - 0.0 - - 10 - - - -
28/08:00pm 6.8 NW 5 7 1021.8 - 0.0 - - 10 - - - -
28/07:30pm 7.6 NW 7 9 1021.6 - 0.0 - - 10 - - - -
28/07:00pm 8.4 NW 6 7 1021.5 - 0.0 - - 10 - - - -
28/06:30pm 9.6 NW 8 12 1021.1 - 0.0 - - 10 - - - -
28/06:00pm 11.1 WNW 10 14 1020.7 - 0.0 - - 10 - - - -
28/05:30pm 11.0 WNW 8 11 1020.5 - 0.0 - - 10 - - - -
28/05:00pm 13.1 W 11 14 1020.2 - 0.0 - - 10 - - - -
28/04:30pm 14.1 W 13 19 1019.8 - 0.0 - - 10 - - - -
28/04:00pm 14.8 W 14 21 1019.7 - 0.0 - - 10 - - - -
28/03:30pm 15.4 W 13 21 1019.6 - 0.0 - - 10 - - - -

Other Formats:

Comma delimited format used in spreadsheet applications
http://www.bom.gov.au/fwo/IDV60701/IDV60701.94912.axf

JavaScript Object Notation format (JSON) in row-major order
http://www.bom.gov.au/fwo/IDV60701/IDV60701.94912.json